Time;durP1;ratioP1;P1;durP2;ratioP2;P2;SDS_P1;SDS_P2;PMS_P1;PMS_P2;Temp;Humidity;BMP_temperature;BMP_pressure;BME280_temperature;BME280_humidity;BME280_pressure;Samples;Min_cycle;Max_cycle;Signal;HPM_P1;HPM_P2
2022/06/26 00:01:23;;;;;;;6.10;5.07;;;19.30;99.90;;;;;;5092489;28;20044;-65
2022/06/26 00:03:49;;;;;;;7.82;6.32;;;19.30;99.90;;;;;;5092694;28;20103;-65
2022/06/26 00:06:15;;;;;;;5.95;5.35;;;19.30;99.90;;;;;;5092924;28;20051;-65
2022/06/26 00:08:40;;;;;;;7.43;5.20;;;19.30;99.90;;;;;;5094525;28;20060;-65
2022/06/26 00:11:07;;;;;;;9.80;5.68;;;19.20;99.90;;;;;;5096350;28;20031;-65
2022/06/26 00:13:32;;;;;;;9.57;6.22;;;19.20;99.90;;;;;;5095394;28;20386;-65
2022/06/26 00:15:58;;;;;;;9.02;5.50;;;19.20;99.90;;;;;;5096186;28;20028;-65
2022/06/26 00:18:23;;;;;;;6.75;5.38;;;19.20;99.90;;;;;;5096179;28;20128;-65
2022/06/26 00:20:49;;;;;;;7.47;5.53;;;19.20;99.90;;;;;;5096280;28;20032;-64
2022/06/26 00:23:14;;;;;;;7.20;6.32;;;19.10;99.90;;;;;;5096300;28;20475;-64
2022/06/26 00:25:40;;;;;;;7.20;5.32;;;19.00;99.90;;;;;;5095990;28;20390;-65
2022/06/26 00:28:06;;;;;;;6.45;5.78;;;19.00;99.90;;;;;;5096266;28;20044;-64
2022/06/26 00:30:32;;;;;;;6.28;5.50;;;19.00;99.90;;;;;;5096225;28;20470;-64
2022/06/26 00:32:57;;;;;;;7.95;6.60;;;18.90;99.90;;;;;;5095871;28;20027;-64
2022/06/26 00:35:23;;;;;;;6.68;5.97;;;19.00;99.90;;;;;;5096119;28;20051;-64
2022/06/26 00:37:48;;;;;;;8.00;6.40;;;18.90;99.90;;;;;;5096052;28;20390;-64
2022/06/26 00:40:14;;;;;;;7.82;5.70;;;18.90;99.90;;;;;;5094881;28;20027;-64
2022/06/26 00:42:40;;;;;;;6.30;5.70;;;18.90;99.90;;;;;;5095952;28;20044;-64
2022/06/26 00:45:06;;;;;;;7.75;6.03;;;18.80;99.90;;;;;;5095945;28;20085;-64
2022/06/26 00:47:32;;;;;;;8.73;6.20;;;18.80;99.90;;;;;;5095921;28;20032;-64
2022/06/26 00:49:58;;;;;;;6.45;5.85;;;18.70;99.90;;;;;;5095907;28;20107;-64
2022/06/26 00:52:24;;;;;;;10.07;5.65;;;18.70;99.90;;;;;;5095808;28;20063;-64
2022/06/26 00:54:50;;;;;;;6.93;6.25;;;18.60;99.90;;;;;;5095772;28;20360;-64
2022/06/26 00:57:17;;;;;;;8.00;6.68;;;18.60;99.90;;;;;;5095728;28;20031;-64
2022/06/26 00:59:43;;;;;;;6.88;6.28;;;18.50;99.90;;;;;;5095493;28;20024;-64
2022/06/26 01:02:09;;;;;;;7.10;6.40;;;18.50;99.90;;;;;;5095077;28;20048;-64
2022/06/26 01:04:34;;;;;;;8.38;6.70;;;18.50;99.90;;;;;;5095607;28;20058;-64
2022/06/26 01:07:00;;;;;;;8.10;7.30;;;18.40;99.90;;;;;;5095518;28;20459;-64
2022/06/26 01:09:26;;;;;;;9.15;7.03;;;18.40;99.90;;;;;;5095484;28;20046;-64
2022/06/26 01:11:53;;;;;;;7.63;6.85;;;18.50;99.90;;;;;;5094291;28;20103;-64
2022/06/26 01:14:20;;;;;;;9.40;7.30;;;18.60;99.90;;;;;;5095417;28;20496;-64
2022/06/26 01:16:46;;;;;;;7.95;6.93;;;18.70;99.90;;;;;;5095342;28;20020;-64
2022/06/26 01:19:16;;;;;;;6.88;6.18;;;18.80;99.90;;;;;;5093891;28;20031;-64
2022/06/26 01:21:42;;;;;;;7.88;6.72;;;18.80;99.90;;;;;;5095013;28;20032;-64
2022/06/26 01:24:07;;;;;;;9.05;6.30;;;19.00;99.90;;;;;;5095052;28;20104;-64
2022/06/26 01:26:34;;;;;;;8.52;6.38;;;19.20;99.90;;;;;;5094841;28;20063;-64
2022/06/26 01:29:01;;;;;;;9.70;7.18;;;19.40;99.90;;;;;;5094817;28;20012;-64
2022/06/26 01:31:26;;;;;;;8.65;6.50;;;19.40;99.90;;;;;;5094825;28;20051;-64
2022/06/26 01:33:52;;;;;;;8.95;8.02;;;19.40;99.90;;;;;;5094784;28;20067;-64
2022/06/26 01:36:18;;;;;;;11.70;8.70;;;19.30;99.90;;;;;;5094920;28;20032;-64
2022/06/26 01:38:44;;;;;;;12.73;8.02;;;19.30;99.90;;;;;;5094546;28;20107;-64
2022/06/26 01:41:09;;;;;;;10.60;8.57;;;19.20;99.90;;;;;;5094644;28;20039;-64
2022/06/26 01:43:37;;;;;;;10.82;8.77;;;19.10;99.90;;;;;;5094830;28;20024;-64
2022/06/26 01:46:05;;;;;;;12.00;9.65;;;19.10;99.90;;;;;;5094814;28;20216;-64
2022/06/26 01:48:32;;;;;;;14.60;10.27;;;19.00;99.90;;;;;;5094735;28;20035;-65
2022/06/26 01:50:59;;;;;;;13.00;11.68;;;19.00;99.90;;;;;;5093243;28;20063;-64
2022/06/26 01:53:26;;;;;;;11.75;10.60;;;19.00;99.90;;;;;;5094627;28;20032;-64
2022/06/26 01:55:52;;;;;;;13.73;11.18;;;18.90;99.90;;;;;;5094609;28;20490;-64
2022/06/26 01:58:18;;;;;;;13.15;11.85;;;18.90;99.90;;;;;;5094214;28;20028;-64
2022/06/26 02:00:45;;;;;;;14.45;12.45;;;18.90;99.90;;;;;;5094043;28;20096;-64
2022/06/26 02:03:12;;;;;;;19.98;13.82;;;18.90;99.90;;;;;;5094269;28;20530;-64
2022/06/26 02:05:37;;;;;;;15.15;13.30;;;18.90;99.90;;;;;;5094242;28;20024;-64
2022/06/26 02:08:04;;;;;;;21.90;15.38;;;18.90;99.90;;;;;;5094336;28;20081;-64
2022/06/26 02:13:49;;;;;;;14.07;12.68;;;19.00;99.90;;;;;;5093889;28;20396;-64
2022/06/26 02:16:14;;;;;;;13.15;11.80;;;19.00;99.90;;;;;;5093831;28;20107;-64
2022/06/26 02:18:41;;;;;;;16.30;13.50;;;19.00;99.90;;;;;;5094192;28;20398;-64
2022/06/26 02:21:09;;;;;;;18.67;14.80;;;18.90;99.90;;;;;;5094030;28;20028;-64
2022/06/26 02:23:37;;;;;;;19.25;14.40;;;18.90;99.90;;;;;;5094100;28;20390;-64
2022/06/26 02:26:05;;;;;;;15.40;13.80;;;18.90;99.90;;;;;;5092875;28;20028;-64
2022/06/26 02:28:31;;;;;;;18.73;13.38;;;18.90;99.90;;;;;;5092852;28;20372;-64
2022/06/26 02:30:57;;;;;;;15.70;14.10;;;18.90;99.90;;;;;;5093566;28;20034;-64
2022/06/26 02:33:23;;;;;;;18.63;16.73;;;18.90;99.90;;;;;;5093982;28;20028;-64
2022/06/26 02:35:49;;;;;;;23.92;18.40;;;18.90;99.90;;;;;;5093992;28;20428;-64
2022/06/26 02:38:15;;;;;;;23.30;19.05;;;18.90;99.90;;;;;;5093881;28;20478;-64
2022/06/26 02:40:41;;;;;;;25.85;21.30;;;18.90;99.90;;;;;;5093870;28;20034;-64
2022/06/26 02:43:07;;;;;;;24.52;20.60;;;19.00;99.90;;;;;;5093807;28;20026;-64
2022/06/26 02:45:33;;;;;;;24.45;20.65;;;19.00;99.90;;;;;;5093485;28;20432;-64
2022/06/26 02:47:58;;;;;;;26.17;21.13;;;19.00;99.90;;;;;;5093779;28;20112;-64
2022/06/26 02:50:24;;;;;;;29.17;22.33;;;19.00;99.90;;;;;;5093476;28;20371;-64
2022/06/26 02:52:50;;;;;;;27.27;22.70;;;18.90;99.90;;;;;;5093679;28;20020;-64
2022/06/26 02:55:16;;;;;;;27.58;22.65;;;18.90;99.90;;;;;;5093658;28;20068;-64
2022/06/26 02:57:41;;;;;;;28.20;21.20;;;18.80;99.90;;;;;;5093591;28;20020;-64
2022/06/26 03:00:10;;;;;;;24.58;21.45;;;18.70;99.90;;;;;;5093168;28;20102;-64
2022/06/26 03:02:35;;;;;;;26.23;22.13;;;18.60;99.90;;;;;;5093257;28;20020;-64
2022/06/26 03:05:01;;;;;;;28.90;22.20;;;18.60;99.90;;;;;;5093209;28;20023;-64
2022/06/26 03:07:26;;;;;;;25.23;22.10;;;18.50;99.90;;;;;;5093524;28;20024;-64
2022/06/26 03:09:52;;;;;;;25.27;22.45;;;18.50;99.90;;;;;;5093279;28;20024;-64
2022/06/26 03:12:17;;;;;;;27.35;22.27;;;18.30;99.90;;;;;;5093484;28;20150;-64
2022/06/26 03:14:43;;;;;;;26.38;22.17;;;18.30;99.90;;;;;;5093432;28;20103;-64
2022/06/26 03:17:09;;;;;;;26.77;21.33;;;18.30;99.90;;;;;;5093455;28;20231;-64
2022/06/26 03:19:34;;;;;;;25.08;20.98;;;18.30;99.90;;;;;;5093452;28;20086;-64
2022/06/26 03:22:00;;;;;;;26.23;21.98;;;18.20;99.90;;;;;;5093074;28;20028;-64
2022/06/26 03:24:26;;;;;;;25.25;21.30;;;18.10;99.90;;;;;;5093352;28;20024;-64
2022/06/26 03:26:51;;;;;;;23.35;19.80;;;18.10;99.90;;;;;;5093346;28;20095;-64
2022/06/26 03:29:17;;;;;;;25.27;20.38;;;18.10;99.90;;;;;;5093337;28;20024;-64
2022/06/26 03:31:42;;;;;;;25.08;21.17;;;18.10;99.90;;;;;;5093262;28;20493;-64
2022/06/26 03:34:08;;;;;;;23.30;19.98;;;18.10;99.90;;;;;;5092989;28;20448;-64
2022/06/26 03:36:34;;;;;;;24.60;20.05;;;18.10;99.90;;;;;;5092946;28;20101;-64
2022/06/26 03:39:01;;;;;;;25.92;20.23;;;18.10;99.90;;;;;;5093005;28;20111;-64
2022/06/26 03:41:27;;;;;;;24.85;20.20;;;18.00;99.90;;;;;;5093120;28;20031;-64
2022/06/26 03:43:53;;;;;;;27.63;20.83;;;18.00;99.90;;;;;;5093700;28;20020;-64
2022/06/26 03:46:20;;;;;;;24.35;21.73;;;18.00;99.90;;;;;;5097141;28;20028;-64
2022/06/26 03:48:45;;;;;;;22.52;20.17;;;18.00;99.90;;;;;;5097075;28;20016;-64
2022/06/26 03:51:11;;;;;;;24.63;21.02;;;17.90;99.90;;;;;;5096761;28;20035;-64
2022/06/26 03:53:37;;;;;;;26.02;21.65;;;18.00;99.90;;;;;;5096818;28;20032;-64
2022/06/26 03:56:03;;;;;;;26.08;21.00;;;18.00;99.90;;;;;;5096928;28;20032;-64
2022/06/26 03:58:29;;;;;;;24.27;20.38;;;18.10;99.90;;;;;;5096865;28;20051;-64
2022/06/26 04:00:55;;;;;;;24.70;20.08;;;18.10;99.90;;;;;;5096393;28;20129;-64
2022/06/26 04:03:21;;;;;;;24.05;20.83;;;18.20;99.90;;;;;;5096791;28;20424;-64
2022/06/26 04:05:47;;;;;;;25.65;20.55;;;18.20;99.90;;;;;;5096486;28;20417;-64
2022/06/26 04:08:13;;;;;;;21.92;18.65;;;18.30;99.90;;;;;;5096725;28;20107;-64
2022/06/26 04:10:39;;;;;;;23.75;18.42;;;18.30;99.90;;;;;;5096355;28;20455;-64
2022/06/26 04:13:06;;;;;;;20.50;18.30;;;18.40;99.90;;;;;;5096627;28;20085;-64
2022/06/26 04:15:34;;;;;;;22.73;19.02;;;18.40;99.90;;;;;;5096315;28;20073;-64
2022/06/26 04:18:01;;;;;;;21.25;17.85;;;18.40;99.90;;;;;;5096221;28;20017;-64
2022/06/26 04:20:26;;;;;;;22.83;18.90;;;18.40;99.90;;;;;;5096123;28;20025;-64
2022/06/26 04:23:02;;;;;;;22.90;18.70;;;18.40;99.90;;;;;;5096123;28;20035;-64
2022/06/26 04:25:30;;;;;;;20.15;17.98;;;18.50;99.90;;;;;;5096400;28;20031;-64
2022/06/26 04:27:56;;;;;;;27.00;19.42;;;18.50;99.90;;;;;;5096066;28;20034;-64
2022/06/26 04:30:22;;;;;;;20.40;18.13;;;18.40;99.90;;;;;;5096328;28;20519;-64
2022/06/26 04:32:48;;;;;;;20.40;17.85;;;18.40;99.90;;;;;;5095974;28;20024;-64
2022/06/26 04:35:14;;;;;;;25.67;17.15;;;18.40;99.90;;;;;;5096182;28;20367;-64
2022/06/26 04:37:40;;;;;;;22.38;17.35;;;18.50;99.90;;;;;;5096155;28;20024;-64
2022/06/26 04:40:08;;;;;;;19.60;17.58;;;18.70;99.90;;;;;;5096128;28;20497;-64
2022/06/26 04:42:34;;;;;;;19.08;16.30;;;18.80;99.90;;;;;;5095960;28;20600;-64
2022/06/26 04:44:59;;;;;;;19.27;16.15;;;19.00;99.90;;;;;;5095780;28;20103;-64
2022/06/26 04:47:25;;;;;;;20.77;14.32;;;19.30;99.90;;;;;;5095944;28;20023;-64
2022/06/26 04:49:51;;;;;;;16.85;13.98;;;19.70;99.90;;;;;;5095883;28;20077;-64
2022/06/26 04:52:16;;;;;;;14.40;10.75;;;20.00;99.90;;;;;;5095820;28;20489;-64
2022/06/26 04:54:43;;;;;;;12.38;10.10;;;20.80;99.90;;;;;;5095416;28;20463;-65
2022/06/26 04:57:09;;;;;;;14.27;10.10;;;20.70;99.90;;;;;;5095776;28;20389;-64
2022/06/26 04:59:34;;;;;;;10.75;9.65;;;20.60;99.90;;;;;;5095439;28;20027;-65
2022/06/26 05:02:00;;;;;;;11.68;9.30;;;20.50;99.90;;;;;;5095213;28;20048;-64
2022/06/26 05:04:25;;;;;;;10.50;9.35;;;20.60;99.90;;;;;;5095338;28;20066;-65
2022/06/26 05:06:51;;;;;;;10.98;8.35;;;20.70;99.90;;;;;;5095264;28;20052;-65
2022/06/26 05:09:17;;;;;;;9.52;7.88;;;21.10;99.90;;;;;;5095486;28;20020;-65
2022/06/26 05:11:44;;;;;;;8.45;7.10;;;22.00;99.90;;;;;;5095294;28;20478;-65
2022/06/26 05:14:10;;;;;;;8.93;6.47;;;22.00;99.90;;;;;;5095461;28;20123;-65
2022/06/26 05:16:35;;;;;;;7.57;6.70;;;22.90;99.90;;;;;;5095393;28;20398;-66
2022/06/26 05:19:02;;;;;;;9.02;6.07;;;22.90;99.90;;;;;;5095325;28;20028;-65
2022/06/26 05:21:28;;;;;;;8.73;6.82;;;22.50;99.90;;;;;;5095193;28;20024;-65
2022/06/26 05:23:53;;;;;;;7.18;6.40;;;22.00;99.90;;;;;;5094973;28;20489;-65
2022/06/26 05:26:19;;;;;;;8.93;6.43;;;22.40;99.90;;;;;;5094957;28;20030;-66
2022/06/26 05:28:45;;;;;;;9.88;6.30;;;22.60;99.90;;;;;;5094931;28;20035;-65
2022/06/26 05:31:10;;;;;;;8.50;6.72;;;22.30;99.90;;;;;;5094833;28;20024;-65
2022/06/26 05:33:36;;;;;;;7.68;6.65;;;21.80;99.90;;;;;;5094746;28;20024;-65
2022/06/26 05:36:02;;;;;;;9.55;7.85;;;21.40;99.90;;;;;;5094706;28;20028;-66
2022/06/26 05:38:28;;;;;;;9.68;6.68;;;21.10;99.90;;;;;;5094708;28;20024;-65
2022/06/26 05:40:53;;;;;;;8.98;6.55;;;20.90;99.90;;;;;;5094791;28;20024;-65
2022/06/26 05:43:19;;;;;;;8.00;6.35;;;21.00;99.90;;;;;;5094850;28;20096;-65
2022/06/26 05:45:44;;;;;;;10.13;5.60;;;21.90;99.90;;;;;;5094591;28;20020;-65
2022/06/26 05:48:10;;;;;;;7.25;5.45;;;23.30;99.90;;;;;;5094526;28;20020;-65
2022/06/26 05:50:36;;;;;;;9.40;5.53;;;23.90;99.90;;;;;;5094685;28;20024;-65
2022/06/26 05:53:01;;;;;;;6.32;5.40;;;23.50;99.90;;;;;;5094603;28;20095;-65
2022/06/26 05:55:27;;;;;;;8.80;5.60;;;22.40;99.90;;;;;;5094622;28;20478;-65
2022/06/26 05:57:53;;;;;;;6.68;5.25;;;21.60;99.90;;;;;;5094251;28;20020;-65
2022/06/26 06:00:18;;;;;;;5.85;5.00;;;21.90;99.90;;;;;;5094266;28;20052;-65
2022/06/26 06:02:45;;;;;;;8.02;5.50;;;22.60;99.90;;;;;;5094384;28;20028;-66
2022/06/26 06:05:11;;;;;;;6.65;5.43;;;23.50;99.90;;;;;;5093968;28;20027;-66
2022/06/26 06:07:37;;;;;;;6.60;4.50;;;23.30;99.90;;;;;;5093906;28;20024;-66
2022/06/26 06:10:06;;;;;;;7.57;4.47;;;24.00;99.90;;;;;;5094439;28;20027;-65
2022/06/26 06:12:32;;;;;;;7.88;5.57;;;25.50;99.90;;;;;;5094342;28;20111;-65
2022/06/26 06:14:57;;;;;;;6.10;5.13;;;25.90;99.90;;;;;;5094227;28;20055;-65
2022/06/26 06:17:40;;;;;;;6.78;5.30;;;25.70;99.90;;;;;;5094005;28;20478;-65
2022/06/26 06:20:12;;;;;;;5.82;4.72;;;25.40;99.90;;;;;;5093964;28;20505;-65
2022/06/26 06:22:39;;;;;;;5.88;4.15;;;25.70;99.90;;;;;;5093816;28;20032;-66
2022/06/26 06:25:06;;;;;;;5.82;4.32;;;26.70;99.90;;;;;;5094135;28;20436;-65
2022/06/26 06:27:31;;;;;;;4.70;3.50;;;26.40;99.90;;;;;;5094001;28;20409;-65
2022/06/26 06:29:57;;;;;;;5.57;3.67;;;25.90;99.90;;;;;;5093975;28;20032;-66
2022/06/26 06:32:22;;;;;;;6.80;3.90;;;24.60;99.90;;;;;;5093780;28;20024;-67
2022/06/26 06:34:48;;;;;;;6.68;4.53;;;24.00;99.90;;;;;;5093909;28;20062;-66
2022/06/26 06:37:14;;;;;;;5.90;4.82;;;22.90;99.90;;;;;;5093947;28;20024;-67
2022/06/26 06:39:40;;;;;;;5.60;5.07;;;23.20;99.90;;;;;;5092448;28;20028;-65
2022/06/26 06:42:05;;;;;;;5.85;5.20;;;23.90;99.90;;;;;;5093738;28;20059;-65
2022/06/26 06:44:31;;;;;;;6.45;5.53;;;23.90;99.90;;;;;;5092396;28;20024;-65
2022/06/26 06:46:59;;;;;;;7.60;5.47;;;24.40;99.90;;;;;;5093754;28;20113;-65
2022/06/26 06:49:25;;;;;;;8.10;6.80;;;25.20;99.90;;;;;;5092611;28;20024;-66
2022/06/26 06:51:51;;;;;;;8.82;7.93;;;24.90;99.90;;;;;;5093493;28;20032;-66
2022/06/26 06:54:17;;;;;;;10.07;8.82;;;23.50;99.90;;;;;;5093665;28;20032;-65
2022/06/26 06:56:42;;;;;;;10.02;8.38;;;22.70;99.90;;;;;;5093524;28;20032;-65
2022/06/26 06:59:08;;;;;;;10.40;9.27;;;22.30;99.90;;;;;;5092071;28;20045;-65
2022/06/26 07:01:33;;;;;;;11.32;9.77;;;22.00;99.90;;;;;;5093129;28;20044;-66
2022/06/26 07:04:01;;;;;;;14.65;10.63;;;22.00;99.90;;;;;;5092175;28;20482;-66
2022/06/26 07:06:27;;;;;;;12.57;11.38;;;22.20;99.90;;;;;;5092195;28;20024;-65
2022/06/26 07:08:53;;;;;;;13.95;11.63;;;22.10;99.90;;;;;;5092289;28;20020;-64
2022/06/26 07:11:19;;;;;;;15.07;13.48;;;22.30;99.90;;;;;;5093237;28;20555;-65
2022/06/26 07:13:44;;;;;;;16.02;14.52;;;21.80;99.90;;;;;;5093225;28;20111;-64
2022/06/26 07:16:10;;;;;;;15.95;14.35;;;21.80;99.90;;;;;;5093486;28;20024;-65
2022/06/26 07:18:36;;;;;;;16.75;14.80;;;21.70;99.90;;;;;;5096562;28;20032;-64
2022/06/26 07:21:02;;;;;;;14.65;13.10;;;21.60;99.90;;;;;;5097301;28;20020;-64
2022/06/26 07:23:27;;;;;;;15.05;13.60;;;21.40;99.90;;;;;;5097580;28;20431;-64
2022/06/26 07:25:55;;;;;;;16.38;14.77;;;21.10;99.90;;;;;;5097527;28;20081;-65
2022/06/26 07:28:21;;;;;;;16.33;14.70;;;21.10;99.90;;;;;;5097500;28;20027;-65
2022/06/26 07:30:47;;;;;;;16.42;14.93;;;20.90;99.90;;;;;;5097438;28;20016;-65
2022/06/26 07:34:25;;;;;;;16.15;14.68;;;20.90;99.90;;;;;;5097379;28;20474;-65
2022/06/26 07:35:58;;;;;;;17.23;15.40;;;20.80;99.90;;;;;;5096883;28;20023;-65
2022/06/26 07:38:24;;;;;;;15.25;13.82;;;21.00;99.90;;;;;;5097275;28;20024;-68
2022/06/26 07:40:49;;;;;;;15.45;13.85;;;21.20;99.90;;;;;;5096896;28;20028;-65
2022/06/26 07:43:15;;;;;;;13.43;11.95;;;21.40;99.90;;;;;;5097173;28;20031;-66
2022/06/26 07:45:41;;;;;;;13.00;11.88;;;21.60;99.90;;;;;;5097248;28;20044;-65
2022/06/26 07:48:07;;;;;;;12.57;11.40;;;21.50;99.90;;;;;;5097076;28;20409;-66
2022/06/26 07:50:35;;;;;;;12.52;11.23;;;21.50;99.90;;;;;;5097092;28;20049;-65
2022/06/26 07:53:00;;;;;;;11.52;10.32;;;21.50;99.90;;;;;;5062273;28;20031;-65
2022/06/26 07:55:26;;;;;;;13.07;11.75;;;21.50;99.90;;;;;;5096760;28;20020;-66
2022/06/26 07:57:52;;;;;;;12.70;11.40;;;21.30;99.90;;;;;;5096860;28;20386;-65
2022/06/26 08:00:18;;;;;;;12.27;10.70;;;21.30;99.90;;;;;;5096312;28;20051;-67
2022/06/26 08:02:43;;;;;;;12.35;11.25;;;21.50;99.90;;;;;;5096751;28;20039;-67
2022/06/26 08:05:09;;;;;;;12.30;11.20;;;21.50;99.90;;;;;;5096541;28;20597;-65
2022/06/26 08:07:34;;;;;;;11.10;10.20;;;21.70;99.90;;;;;;5096688;28;20031;-67
2022/06/26 08:10:00;;;;;;;11.30;10.30;;;21.70;99.90;;;;;;5095089;28;20024;-65
2022/06/26 08:12:26;;;;;;;11.00;9.88;;;21.50;99.90;;;;;;5096360;28;20027;-65
2022/06/26 08:14:51;;;;;;;11.63;10.52;;;22.30;99.90;;;;;;5096367;28;20020;-65
2022/06/26 08:17:17;;;;;;;12.00;10.90;;;23.20;99.90;;;;;;5094988;28;20028;-65
2022/06/26 08:19:43;;;;;;;11.98;9.77;;;23.70;99.90;;;;;;5096356;28;20111;-65
2022/06/26 08:22:08;;;;;;;15.90;12.77;;;23.30;99.90;;;;;;5096074;28;20060;-65
2022/06/26 08:24:36;;;;;;;14.13;12.93;;;22.60;99.90;;;;;;5096131;28;20039;-65
2022/06/26 08:27:01;;;;;;;15.13;13.65;;;22.70;99.90;;;;;;5096343;28;20028;-65
2022/06/26 08:29:27;;;;;;;13.25;11.95;;;22.80;99.90;;;;;;5095574;28;20379;-65
2022/06/26 08:31:53;;;;;;;13.57;12.00;;;22.80;99.90;;;;;;5096271;28;20500;-65
2022/06/26 08:34:19;;;;;;;12.45;11.32;;;23.00;99.90;;;;;;5096023;28;20032;-65
2022/06/26 08:36:45;;;;;;;12.50;11.30;;;23.30;99.90;;;;;;5096193;28;20107;-65
2022/06/26 08:39:11;;;;;;;11.82;10.63;;;24.10;99.90;;;;;;5095791;28;20111;-65
2022/06/26 08:41:40;;;;;;;11.40;10.40;;;23.90;99.90;;;;;;5094490;28;20548;-65
2022/06/26 08:44:07;;;;;;;12.40;11.20;;;24.10;99.90;;;;;;5094936;28;20031;-65
2022/06/26 08:46:37;;;;;;;11.88;10.40;;;24.90;99.90;;;;;;5095741;28;20027;-65
2022/06/26 08:49:09;;;;;;;10.45;9.65;;;24.40;99.90;;;;;;5095975;28;20028;-65
2022/06/26 08:51:40;;;;;;;10.85;9.82;;;23.90;99.90;;;;;;5095884;28;20550;-65
2022/06/26 08:54:06;;;;;;;9.88;8.98;;;23.60;99.90;;;;;;5095532;28;20023;-65
2022/06/26 08:56:33;;;;;;;11.70;9.15;;;23.80;99.90;;;;;;5095777;28;20111;-65
2022/06/26 08:59:00;;;;;;;11.52;8.40;;;24.00;99.90;;;;;;5095739;28;20027;-65
2022/06/26 09:01:25;;;;;;;9.00;8.20;;;24.60;99.90;;;;;;5095196;28;20052;-65
2022/06/26 09:03:51;;;;;;;9.75;8.75;;;24.90;99.90;;;;;;5095359;28;20162;-65
2022/06/26 09:06:16;;;;;;;9.32;8.43;;;25.80;99.90;;;;;;5095591;28;20023;-65
2022/06/26 09:08:45;;;;;;;8.80;8.00;;;25.90;99.90;;;;;;5095600;28;20072;-65
2022/06/26 09:11:11;;;;;;;12.40;9.43;;;25.80;99.90;;;;;;5095542;28;20082;-65
2022/06/26 09:13:40;;;;;;;9.70;8.80;;;25.00;99.90;;;;;;5095535;28;20034;-64
2022/06/26 09:16:06;;;;;;;10.05;9.23;;;24.20;99.90;;;;;;5095398;28;20032;-65
2022/06/26 09:18:36;;;;;;;11.20;10.02;;;23.90;99.90;;;;;;5095354;28;20081;-64
2022/06/26 09:21:04;;;;;;;11.35;10.35;;;23.80;99.90;;;;;;5095282;28;20024;-65
2022/06/26 09:23:32;;;;;;;12.57;11.30;;;23.80;99.90;;;;;;5093743;28;20020;-64
2022/06/26 09:25:57;;;;;;;10.18;9.20;;;23.50;99.90;;;;;;5095241;28;20034;-65
2022/06/26 09:28:24;;;;;;;9.50;8.27;;;24.90;99.90;;;;;;5095172;28;20099;-65
2022/06/26 09:31:04;;;;;;;10.07;8.68;;;25.70;99.90;;;;;;5095135;28;20016;-65
2022/06/26 09:33:33;;;;;;;8.73;7.80;;;24.60;99.90;;;;;;5093893;28;20016;-65
2022/06/26 09:36:02;;;;;;;9.15;8.25;;;23.90;99.90;;;;;;5095088;28;20032;-65
2022/06/26 09:38:30;;;;;;;10.48;7.80;;;23.70;99.90;;;;;;5094951;28;20024;-65
2022/06/26 09:40:58;;;;;;;9.00;8.10;;;23.70;99.90;;;;;;5093758;28;20475;-65
2022/06/26 09:43:31;;;;;;;9.25;8.35;;;23.20;99.90;;;;;;5094867;28;20028;-65
2022/06/26 09:45:59;;;;;;;10.65;8.05;;;23.10;99.90;;;;;;5093450;28;20036;-65
2022/06/26 09:48:26;;;;;;;8.82;8.02;;;23.50;99.90;;;;;;5094775;28;20074;-65
2022/06/26 09:50:53;;;;;;;6.53;5.90;;;24.00;99.90;;;;;;5093374;28;20028;-65
2022/06/26 09:53:20;;;;;;;7.32;6.13;;;23.70;99.90;;;;;;5094687;28;20478;-65
2022/06/26 09:55:47;;;;;;;6.82;4.93;;;24.20;99.90;;;;;;5094666;28;20032;-65
2022/06/26 09:58:14;;;;;;;4.70;4.18;;;25.10;99.90;;;;;;5094498;28;20470;-65
2022/06/26 10:00:39;;;;;;;3.60;3.10;;;25.40;99.90;;;;;;5094296;28;20072;-65
2022/06/26 10:06:25;;;;;;;5.10;4.57;;;24.90;99.90;;;;;;5094042;28;20043;-65
2022/06/26 10:08:43;;;;;;;7.93;6.53;;;24.60;99.90;;;;;;5094030;28;20085;-65
2022/06/26 10:11:09;;;;;;;8.43;7.20;;;23.80;99.90;;;;;;5094292;28;20028;-65
2022/06/26 10:13:38;;;;;;;7.60;6.90;;;23.80;99.90;;;;;;5094298;28;20061;-65
2022/06/26 10:16:31;;;;;;;8.35;7.50;;;24.60;99.90;;;;;;5094211;28;20081;-65
2022/06/26 10:19:28;;;;;;;7.47;6.90;;;25.70;99.90;;;;;;5093847;28;20035;-65
2022/06/26 10:21:54;;;;;;;7.53;6.82;;;26.60;99.90;;;;;;5093732;28;20035;-65
2022/06/26 10:24:20;;;;;;;6.75;6.25;;;27.30;99.90;;;;;;5094155;28;20390;-65
2022/06/26 10:26:56;;;;;;;7.43;6.22;;;27.40;99.90;;;;;;5094016;28;20031;-65
2022/06/26 10:29:39;;;;;;;6.88;6.18;;;27.40;99.90;;;;;;5093783;28;20092;-65
2022/06/26 10:32:07;;;;;;;6.10;5.60;;;26.70;99.90;;;;;;5094034;28;20043;-65
2022/06/26 10:34:33;;;;;;;6.68;6.13;;;26.00;99.90;;;;;;5093986;28;20055;-65
2022/06/26 10:37:05;;;;;;;7.00;5.93;;;24.90;99.90;;;;;;5093946;28;20028;-65
2022/06/26 10:39:49;;;;;;;7.13;6.53;;;25.20;99.90;;;;;;5093698;28;20534;-65
2022/06/26 10:45:09;;;;;;;7.25;6.55;;;25.70;99.90;;;;;;5093438;28;20554;-64
2022/06/26 10:47:53;;;;;;;7.07;6.38;;;25.80;99.90;;;;;;5093793;28;20081;-64
2022/06/26 10:50:45;;;;;;;8.02;7.32;;;25.10;99.90;;;;;;5093737;28;20097;-64
2022/06/26 10:53:18;;;;;;;7.43;6.73;;;24.40;99.90;;;;;;5091645;28;20054;-65
2022/06/26 10:56:04;;;;;;;7.85;6.90;;;24.60;99.90;;;;;;5093521;28;20051;-64
2022/06/26 10:58:39;;;;;;;7.82;7.22;;;25.30;99.90;;;;;;5093353;28;20020;-66
2022/06/26 11:01:07;;;;;;;8.38;7.40;;;25.20;99.90;;;;;;5093143;28;20490;-64
2022/06/26 11:03:34;;;;;;;7.90;7.25;;;25.60;99.90;;;;;;5093584;28;20525;-64
2022/06/26 11:06:06;;;;;;;7.70;7.03;;;25.90;99.90;;;;;;5093596;28;20513;-64
2022/06/26 11:08:34;;;;;;;7.80;7.03;;;25.70;99.90;;;;;;5093527;28;20432;-64
2022/06/26 11:11:02;;;;;;;7.95;7.30;;;25.70;99.90;;;;;;5093146;28;20024;-64
2022/06/26 11:13:28;;;;;;;7.82;7.00;;;25.30;99.90;;;;;;5093514;28;20047;-66
2022/06/26 11:15:54;;;;;;;8.63;7.82;;;25.50;99.90;;;;;;5091980;28;20398;-65
2022/06/26 11:18:25;;;;;;;7.88;7.15;;;25.20;99.90;;;;;;5093474;28;20447;-65
2022/06/26 11:20:54;;;;;;;8.43;6.65;;;25.20;99.90;;;;;;5093184;28;20474;-66
2022/06/26 11:23:26;;;;;;;7.22;6.32;;;25.10;99.90;;;;;;5093578;28;20020;-66
2022/06/26 11:26:01;;;;;;;8.15;5.45;;;25.40;99.90;;;;;;5093214;28;20020;-66
2022/06/26 11:28:32;;;;;;;6.15;5.55;;;25.60;99.90;;;;;;5093413;28;20490;-66
2022/06/26 11:30:58;;;;;;;7.55;5.80;;;25.70;99.90;;;;;;5075027;28;20020;-66
2022/06/26 11:33:27;;;;;;;7.57;6.07;;;25.70;99.90;;;;;;5093206;28;20107;-66
2022/06/26 11:35:55;;;;;;;6.20;5.70;;;25.50;99.70;;;;;;5093373;28;20024;-66
2022/06/26 11:38:21;;;;;;;6.38;5.78;;;25.60;99.40;;;;;;5093063;28;20016;-66
2022/06/26 11:40:48;;;;;;;9.50;6.07;;;25.60;98.80;;;;;;5093084;28;20052;-66
2022/06/26 11:43:14;;;;;;;6.18;5.57;;;25.70;99.30;;;;;;5091886;28;20085;-66
2022/06/26 11:45:42;;;;;;;5.70;5.20;;;25.90;99.90;;;;;;5093257;28;20111;-66
2022/06/26 11:48:12;;;;;;;7.95;7.25;;;26.40;99.90;;;;;;5093135;28;20031;-66
2022/06/26 11:50:39;;;;;;;7.40;6.47;;;26.40;97.40;;;;;;5093135;28;20020;-66
2022/06/26 11:53:06;;;;;;;8.52;6.57;;;25.50;99.40;;;;;;5093086;28;20519;-66
2022/06/26 11:55:33;;;;;;;8.18;6.70;;;25.40;99.50;;;;;;5093114;28;20479;-66
2022/06/26 11:58:02;;;;;;;7.82;7.00;;;25.60;98.30;;;;;;5093088;28;20428;-66
2022/06/26 12:00:28;;;;;;;6.45;5.85;;;25.50;97.70;;;;;;5092774;28;20048;-66
2022/06/26 12:02:54;;;;;;;6.93;6.28;;;25.50;97.80;;;;;;5092948;28;20032;-66
2022/06/26 12:05:23;;;;;;;7.85;5.82;;;25.60;98.60;;;;;;5095674;28;20031;-66
2022/06/26 12:07:51;;;;;;;6.20;5.53;;;25.80;98.50;;;;;;5096599;28;20378;-66
2022/06/26 12:10:27;;;;;;;6.32;5.72;;;26.20;97.30;;;;;;5096703;28;20107;-66
2022/06/26 12:12:53;;;;;;;6.47;5.95;;;26.00;97.10;;;;;;5095495;28;20074;-66
2022/06/26 12:15:19;;;;;;;7.47;6.65;;;25.90;95.90;;;;;;5096404;28;20024;-66
2022/06/26 12:17:54;;;;;;;6.13;5.60;;;25.60;97.00;;;;;;5096565;28;20031;-66
2022/06/26 12:20:20;;;;;;;5.88;5.35;;;25.70;98.50;;;;;;5096513;28;20039;-66
2022/06/26 12:22:50;;;;;;;6.07;5.45;;;25.80;98.10;;;;;;5096391;28;20032;-66
2022/06/26 12:25:33;;;;;;;6.78;4.63;;;26.00;97.70;;;;;;5096497;28;20527;-66
2022/06/26 12:28:00;;;;;;;5.28;4.75;;;26.20;96.90;;;;;;5096195;28;20532;-66
2022/06/26 12:30:28;;;;;;;5.47;4.90;;;25.80;97.30;;;;;;5096506;28;20487;-66
2022/06/26 12:32:55;;;;;;;5.05;4.40;;;25.80;97.50;;;;;;5096352;28;20510;-66
2022/06/26 12:35:21;;;;;;;5.50;4.57;;;26.00;97.70;;;;;;5096261;28;20405;-66
2022/06/26 12:37:47;;;;;;;5.40;4.53;;;25.90;97.00;;;;;;5096222;28;20024;-66
2022/06/26 12:40:13;;;;;;;5.50;4.30;;;25.80;96.60;;;;;;5096177;28;20028;-66
2022/06/26 12:42:38;;;;;;;4.65;4.25;;;25.50;97.60;;;;;;5094496;28;20035;-66
2022/06/26 12:45:05;;;;;;;4.93;4.40;;;25.60;97.20;;;;;;5096049;28;20421;-66
2022/06/26 12:47:31;;;;;;;6.70;4.80;;;25.50;96.90;;;;;;5096013;28;20522;-66